Stormwatcher's Retreat Logo




                  Temp     Hi    Low   Out    Dew  Wind  Wind   Wind    Hi    Hi   Wind   Heat    THW   THSW                Rain  Solar   Solar Hi Solar   UV    UV    Hi     Heat    Cool    In     In    In     In     In   In Air          Wind  Wind    ISS   Arc.
  Date    Time     Out   Temp   Temp   Hum    Pt. Speed   Dir    Run Speed   Dir  Chill  Index  Index  Index   Bar    Rain  Rate   Rad.  Energy    Rad.  Index  Dose   UV     D-D     D-D    Temp   Hum    Dew   Heat    EMC Density     ET   Samp   Tx   Recept  Int.
------------------------------------------------------------------------------------------------------------------------------------------------------------------------------------------------------------------------------------------------------------------------
 5/27/24 12:10a   51.0   51.0   50.9    88   47.6   0.0   ---   0.00   0.0   ---   51.0   51.1   51.1   47.9  30.188  0.00  0.00     0     0.00      0     0.0  0.00   0.0   0.097   0.000   71.8    50   52.2   70.8   9.25  .0744    0.000   201    7    100.0   10 
 5/27/24 12:20a   51.2   51.2   51.0    89   48.1   0.0   ---   0.00   0.0   ---   51.2   51.4   51.4   48.2  30.188  0.00  0.00     0     0.00      0     0.0  0.00   0.0   0.096   0.000   71.7    50   52.1   70.6   9.25  .0744    0.000   203    7    100.0   10 
 5/27/24 12:30a   51.1   51.2   51.1    88   47.7   0.0   ---   0.00   0.0   ---   51.1   51.2   51.2   48.0  30.184  0.00  0.00     0     0.00      0     0.0  0.00   0.0   0.097   0.000   71.6    50   52.0   70.5   9.25  .0744    0.000   201    7    100.0   10 
 5/27/24 12:40a   51.1   51.1   51.0    89   48.0   0.0   ---   0.00   0.0   ---   51.1   51.3   51.3   48.1  30.183  0.00  0.00     0     0.00      0     0.0  0.00   0.0   0.097   0.000   71.6    50   52.0   70.5   9.25  .0744    0.000   204    7    100.0   10 
 5/27/24 12:50a   51.3   51.4   51.1    89   48.2   0.0   ---   0.00   0.0   ---   51.3   51.5   51.5   48.3  30.184  0.00  0.00     0     0.00      0     0.0  0.00   0.0   0.095   0.000   71.5    50   51.9   70.3   9.25  .0744    0.000   205    7    100.0   10 
 5/27/24  1:00a   51.3   51.5   51.3    89   48.2   0.0   ---   0.00   0.0   ---   51.3   51.5   51.5   48.3  30.182  0.00  0.00     0     0.00      0     0.0  0.00   0.0   0.095   0.000   71.4    50   51.8   70.2   9.25  .0744    0.000   203    7    100.0   10 
 5/27/24  1:10a   51.0   51.3   51.0    89   47.9   0.0   ---   0.00   0.0   ---   51.0   51.2   51.2   48.0  30.181  0.00  0.00     0     0.00      0     0.0  0.00   0.0   0.097   0.000   71.4    50   51.8   70.2   9.25  .0744    0.000   203    7    100.0   10 
 5/27/24  1:20a   50.9   51.1   50.9    89   47.8   0.0   ---   0.00   0.0   ---   50.9   51.1   51.1   47.9  30.179  0.00  0.00     0     0.00      0     0.0  0.00   0.0   0.098   0.000   71.4    50   51.8   70.2   9.25  .0744    0.000   202    7    100.0   10 
 5/27/24  1:30a   50.8   50.9   50.8    90   48.0   0.0   ---   0.00   0.0   ---   50.8   51.0   51.0   47.8  30.177  0.00  0.00     0     0.00      0     0.0  0.00   0.0   0.099   0.000   71.3    50   51.7   70.1   9.25  .0744    0.000   205    7    100.0   10 
 5/27/24  1:40a   50.9   50.9   50.8    90   48.1   0.0   ---   0.00   0.0   ---   50.9   51.1   51.1   47.9  30.177  0.00  0.00     0     0.00      0     0.0  0.00   0.0   0.098   0.000   71.2    50   51.6   69.9   9.25  .0744    0.000   204    7    100.0   10 
 5/27/24  1:50a   50.8   50.9   50.8    90   48.0   0.0   ENE   0.00   1.0   ENE   50.8   51.0   51.0   47.8  30.175  0.00  0.00     0     0.00      0     0.0  0.00   0.0   0.099   0.000   71.2    50   51.6   69.9   9.25  .0744    0.000   203    7    100.0   10 
 5/27/24  2:00a   50.9   50.9   50.8    90   48.1   0.0   ENE   0.00   1.0   ENE   50.9   51.1   51.1   47.9  30.178  0.00  0.00     0     0.00      0     0.0  0.00   0.0   0.098   0.000   71.2    50   51.6   69.9   9.25  .0744    0.000   202    7    100.0   10 
 5/27/24  2:10a   51.0   51.0   50.9    90   48.2   0.0   ---   0.00   0.0   ---   51.0   51.2   51.2   48.0  30.178  0.00  0.00     0     0.00      0     0.0  0.00   0.0   0.097   0.000   71.1    50   51.5   69.8   9.25  .0745    0.000   204    7    100.0   10 
 5/27/24  2:20a   51.0   51.1   51.0    90   48.2   0.0   ESE   0.00   2.0   ENE   51.0   51.2   51.2   48.0  30.176  0.00  0.00     0     0.00      0     0.0  0.00   0.0   0.097   0.000   71.0    50   51.4   69.6   9.25  .0745    0.000   203    7    100.0   10 
 5/27/24  2:30a   51.2   51.2   51.0    91   48.7   0.0   ---   0.00   0.0   ---   51.2   51.4   51.4   48.2  30.177  0.00  0.00     0     0.00      0     0.0  0.00   0.0   0.096   0.000   71.0    50   51.4   69.6   9.25  .0745    0.000   203    7    100.0   10 
 5/27/24  2:40a   51.2   51.3   51.2    91   48.7   0.0   ---   0.00   0.0   ---   51.2   51.4   51.4   48.2  30.176  0.00  0.00     0     0.00      0     0.0  0.00   0.0   0.096   0.000   71.0    50   51.4   69.6   9.25  .0745    0.000   203    7    100.0   10 
 5/27/24  2:50a   51.1   51.3   51.1    90   48.3   0.0   ESE   0.00   1.0   ESE   51.1   51.3   51.3   48.1  30.179  0.00  0.00     0     0.00      0     0.0  0.00   0.0   0.097   0.000   70.9    50   51.3   69.5   9.25  .0745    0.000   204    7    100.0   10 
 5/27/24  3:00a   51.1   51.2   51.0    90   48.3   0.0   ESE   0.00   2.0    SE   51.1   51.3   51.3   48.1  30.179  0.00  0.00     0     0.00      0     0.0  0.00   0.0   0.097   0.000   70.9    50   51.3   69.5   9.25  .0745    0.000   203    7    100.0   10 
 5/27/24  3:10a   50.9   51.0   50.8    90   48.1   0.0   ESE   0.00   2.0   ESE   50.9   51.1   51.1   47.9  30.178  0.00  0.00     0     0.00      0     0.0  0.00   0.0   0.098   0.000   70.8    50   51.2   69.3   9.25  .0745    0.000   204    7    100.0   10 
 5/27/24  3:20a   50.8   50.9   50.7    90   48.0   1.0   ESE   0.17   2.0   ESE   50.8   51.0   51.0   47.8  30.178  0.00  0.00     0     0.00      0     0.0  0.00   0.0   0.099   0.000   70.8    50   51.2   69.3   9.25  .0745    0.000   204    7    100.0   10 
 5/27/24  3:30a   50.8   50.8   50.7    91   48.3   1.0   ESE   0.17   3.0    SE   50.8   51.1   51.1   47.9  30.176  0.00  0.00     0     0.00      0     0.0  0.00   0.0   0.099   0.000   70.7    50   51.1   69.2   9.25  .0745    0.000   204    7    100.0   10 
 5/27/24  3:40a   50.8   50.8   50.7    91   48.3   0.0   ESE   0.00   1.0   ESE   50.8   51.1   51.1   47.9  30.175  0.00  0.00     0     0.00      0     0.0  0.00   0.0   0.099   0.000   70.7    50   51.1   69.2   9.25  .0745    0.000   203    7    100.0   10 
 5/27/24  3:50a   50.9   50.9   50.8    91   48.4   0.0   ESE   0.00   1.0   ESE   50.9   51.2   51.2   48.0  30.174  0.00  0.00     0     0.00      0     0.0  0.00   0.0   0.098   0.000   70.6    50   51.1   69.1   9.25  .0745    0.000   202    7    100.0   10 
 5/27/24  4:00a   51.0   51.0   50.9    91   48.5   0.0   ESE   0.00   1.0   ESE   51.0   51.2   51.2   48.0  30.176  0.00  0.00     0     0.00      0     0.0  0.00   0.0   0.097   0.000   70.6    50   51.1   69.1   9.25  .0745    0.000   202    7    100.0   10 
 5/27/24  4:10a   51.0   51.1   51.0    91   48.5   0.0   ESE   0.00   2.0   ESE   51.0   51.2   51.2   48.0  30.176  0.00  0.00     0     0.00      0     0.0  0.00   0.0   0.097   0.000   70.5    50   51.0   68.9   9.25  .0746    0.000   203    7    100.0   10 
 5/27/24  4:20a   51.0   51.1   51.0    91   48.5   1.0   ESE   0.17   2.0   ESE   51.0   51.2   51.2   48.0  30.177  0.00  0.00     0     0.00      0     0.0  0.00   0.0   0.097   0.000   70.5    50   51.0   68.9   9.25  .0746    0.000   203    7    100.0   10 
 5/27/24  4:30a   51.0   51.0   50.9    91   48.5   0.0   ESE   0.00   1.0   ESE   51.0   51.2   51.2   48.0  30.172  0.00  0.00     0     0.00      0     0.0  0.00   0.0   0.097   0.000   70.5    50   51.0   68.9   9.25  .0745    0.000   202    7    100.0   10 
 5/27/24  4:40a   51.1   51.1   51.0    91   48.6   0.0   ESE   0.00   2.0   ESE   51.1   51.3   51.3   48.1  30.170  0.00  0.00     0     0.00      0     0.0  0.00   0.0   0.097   0.000   70.4    50   50.9   68.8   9.25  .0746    0.000   204    7    100.0   10 
 5/27/24  4:50a   51.2   51.2   51.0    91   48.7   0.0   ESE   0.00   1.0   ESE   51.2   51.4   51.4   48.2  30.170  0.00  0.00     0     0.00      0     0.0  0.00   0.0   0.096   0.000   70.3    50   50.8   68.7   9.25  .0746    0.000   202    7    100.0   10 
 5/27/24  5:00a   51.3   51.3   51.2    91   48.8   0.0   ---   0.00   0.0   ---   51.3   51.5   51.5   48.3  30.171  0.00  0.00     0     0.00      0     0.0  0.00   0.0   0.095   0.000   70.3    50   50.8   68.7   9.25  .0746    0.000   204    7    100.0   10 
 5/27/24  5:10a   51.4   51.4   51.3    91   48.9   0.0   ESE   0.00   1.0   ESE   51.4   51.6   51.6   48.4  30.170  0.00  0.00     0     0.00      0     0.0  0.00   0.0   0.094   0.000   70.3    50   50.8   68.7   9.25  .0746    0.000   204    7    100.0   10 
 5/27/24  5:20a   51.4   51.4   51.3    91   48.9   0.0   ESE   0.00   1.0   ESE   51.4   51.6   51.6   48.4  30.170  0.00  0.00     0     0.00      0     0.0  0.00   0.0   0.094   0.000   70.2    50   50.7   68.6   9.25  .0746    0.000   204    7    100.0   10 
 5/27/24  5:30a   51.5   51.6   51.4    91   49.0   0.0   ESE   0.00   1.0   ESE   51.5   51.7   51.7   48.5  30.171  0.00  0.00     0     0.00      0     0.0  0.00   0.0   0.094   0.000   70.2    50   50.7   68.6   9.25  .0746    0.000   203    7    100.0   10 
 5/27/24  5:40a   51.6   51.6   51.5    91   49.1   0.0   ESE   0.00   1.0   ESE   51.6   51.8   51.8   48.7  30.172  0.00  0.00     0     0.00      0     0.0  0.00   0.0   0.093   0.000   70.3    50   50.8   68.7   9.25  .0746    0.000   204    7    100.0   10 
 5/27/24  5:50a   51.8   51.8   51.6    91   49.3   0.0   ESE   0.00   1.0   ESE   51.8   52.0   52.0   48.9  30.172  0.00  0.00     2     0.03      5     0.0  0.00   0.0   0.092   0.000   70.3    50   50.8   68.7   9.25  .0746    0.000   202    7    100.0   10 
 5/27/24  6:00a   51.8   51.8   51.7    91   49.3   0.0     E   0.00   2.0   ESE   51.8   52.0   52.0   49.1  30.172  0.00  0.00     8     0.11     11     0.0  0.00   0.0   0.092   0.000   70.5    50   51.0   68.9   9.25  .0745    0.000   203    7    100.0   10 
 5/27/24  6:10a   51.8   51.9   51.7    91   49.3   1.0     E   0.17   3.0     E   51.8   52.0   52.0   49.2  30.171  0.00  0.00    14     0.20     18     0.0  0.00   0.0   0.092   0.000   70.6    50   51.1   69.1   9.25  .0745    0.000   203    7    100.0   10 
 5/27/24  6:20a   51.9   51.9   51.8    91   49.4   1.0     E   0.17   3.0     E   51.9   52.1   52.1   49.4  30.172  0.00  0.00    20     0.29     23     0.0  0.00   0.0   0.091   0.000   70.8    50   51.2   69.3   9.25  .0745    0.000   204    7    100.0   10 
 5/27/24  6:30a   52.1   52.1   51.9    91   49.6   1.0     E   0.17   3.0   ESE   52.1   52.3   52.3   49.8  30.175  0.00  0.00    28     0.40     35     0.0  0.00   0.0   0.090   0.000   70.9    50   51.3   69.5   9.25  .0745    0.000   204    7    100.0   10 
 5/27/24  6:40a   52.3   52.3   52.0    90   49.5   1.0     E   0.17   4.0     E   52.3   52.5   52.5   50.5  30.177  0.00  0.00    51     0.73     58     0.0  0.00   0.0   0.088   0.000   71.1    50   51.5   69.8   9.25  .0745    0.000   204    7    100.0   10 
 5/27/24  6:50a   52.6   52.6   52.3    90   49.8   1.0     E   0.17   4.0     E   52.6   52.7   52.7   50.8  30.179  0.00  0.00    55     0.79     60     0.0  0.00   0.0   0.086   0.000   71.2    50   51.6   69.9   9.25  .0744    0.000   202    7    100.0   10 
 5/27/24  7:00a   52.8   52.8   52.6    90   49.9   1.0     E   0.17   3.0     E   52.8   52.9   52.9   51.2  30.182  0.00  0.00    67     0.96     69     0.0  0.00   0.0   0.085   0.000   71.3    50   51.7   70.1   9.25  .0744    0.001   202    7    100.0   10 
 5/27/24  7:10a   53.0   53.0   52.8    90   50.1   1.0     E   0.17   2.0     E   53.0   53.1   53.1   51.5  30.183  0.00  0.00    69     0.99     72     0.0  0.00   0.0   0.083   0.000   71.5    50   51.9   70.3   9.25  .0744    0.000   204    7    100.0   10 
 5/27/24  7:20a   53.3   53.3   53.0    90   50.4   0.0     E   0.00   2.0     E   53.3   53.4   53.4   55.0  30.186  0.00  0.00    82     1.18     90     0.0  0.00   0.0   0.081   0.000   71.6    50   52.0   70.5   9.25  .0744    0.000   203    7    100.0   10 
 5/27/24  7:30a   53.7   53.7   53.3    90   50.8   1.0     E   0.17   2.0     E   53.7   53.8   53.8   56.5  30.188  0.00  0.00   109     1.56    123     0.0  0.00   0.0   0.078   0.000   71.6    50   52.0   70.5   9.25  .0744    0.000   202    7    100.0   10 
 5/27/24  7:40a   53.8   53.9   53.7    89   50.6   1.0     E   0.17   3.0     E   53.8   53.9   53.9   55.3  30.192  0.00  0.00    74     1.06     83     0.0  0.00   0.0   0.078   0.000   71.6    50   52.0   70.5   9.25  .0744    0.000   203    7    100.0   10 
 5/27/24  7:50a   54.1   54.1   53.8    89   50.9   1.0     E   0.17   3.0     E   54.1   54.2   54.2   58.1  30.190  0.00  0.00   142     2.04    165     0.0  0.00   0.0   0.076   0.000   71.6    50   52.0   70.5   9.25  .0744    0.000   203    7    100.0   10 
 5/27/24  8:00a   54.5   54.6   54.1    89   51.3   1.0   ENE   0.17   4.0   ENE   54.5   54.6   54.6   58.5  30.193  0.00  0.00   143     2.05    165     0.3  0.02   0.5   0.073   0.000   71.6    50   52.0   70.5   9.25  .0744    0.002   203    7    100.0   10 
 5/27/24  8:10a   54.8   54.8   54.6    88   51.3   1.0     E   0.17   4.0     E   54.8   54.8   54.8   57.8  30.194  0.00  0.00   123     1.76    137     0.5  0.04   0.5   0.071   0.000   71.6    50   52.0   70.5   9.25  .0744    0.000   203    7    100.0   10 
 5/27/24  8:20a   55.1   55.1   54.8    88   51.6   1.0     E   0.17   2.0     E   55.1   55.1   55.1   57.9  30.196  0.00  0.00   122     1.75    142     0.5  0.04   0.5   0.069   0.000   71.6    50   52.0   70.5   9.25  .0744    0.000   203    7    100.0   10 
 5/27/24  8:30a   55.3   55.3   55.1    88   51.8   1.0    NE   0.17   5.0    NE   55.3   55.3   55.3   59.3  30.196  0.00  0.00   161     2.31    172     0.6  0.04   0.7   0.067   0.000   71.6    50   52.0   70.5   9.25  .0744    0.000   204    7    100.0   10 
 5/27/24  8:40a   55.1   55.3   55.1    87   51.3   2.0   NNE   0.33   6.0   NNE   55.1   55.1   55.1   59.6  30.197  0.00  0.00   183     2.62    197     0.8  0.06   0.8   0.069   0.000   71.6    50   52.0   70.5   9.25  .0744    0.000   201    7    100.0   10 
 5/27/24  8:50a   55.5   55.5   55.0    88   52.0   2.0   ENE   0.33   6.0   ESE   55.5   55.5   55.5   61.7  30.198  0.00  0.00   239     3.43    262     1.0  0.07   1.2   0.066   0.000   71.6    50   52.0   70.5   9.25  .0744    0.000   201    7    100.0   10 
 5/27/24  9:00a   56.4   56.4   55.5    87   52.6   2.0   ENE   0.33   6.0    NE   56.4   56.4   56.4   63.8  30.198  0.00  0.00   295     4.23    366     1.3  0.09   1.4   0.060   0.000   71.7    49   51.5   70.5   9.05  .0744    0.004   204    7    100.0   10 
 5/27/24  9:10a   56.7   56.8   56.4    86   52.6   2.0   ENE   0.33   5.0    NE   56.7   56.6   56.6   64.0  30.197  0.00  0.00   305     4.37    475     1.7  0.12   2.1   0.058   0.000   71.7    49   51.5   70.5   9.05  .0744    0.000   204    7    100.0   10 
 5/27/24  9:20a   56.9   56.9   56.5    86   52.8   1.0     N   0.17   3.0   NNW   56.9   56.8   56.8   69.4  30.195  0.00  0.00   607     8.70    652     2.3  0.16   2.5   0.056   0.000   71.7    49   51.5   70.5   9.05  .0744    0.000   203    7    100.0   10 
 5/27/24  9:30a   57.0   57.1   56.8    85   52.5   1.0     N   0.17   4.0   ENE   57.0   56.9   56.9   66.8  30.193  0.00  0.00   459     6.58    615     2.2  0.16   2.5   0.056   0.000   71.6    49   51.4   70.4   9.05  .0744    0.000   204    7    100.0   10 
 5/27/24  9:40a   57.8   57.8   57.0    85   53.3   1.0   ENE   0.17   4.0   ENE   57.8   57.7   57.7   67.4  30.191  0.00  0.00   451     6.47    540     2.4  0.17   2.5   0.050   0.000   71.6    49   51.4   70.4   9.05  .0744    0.000   205    7    100.0   10 
 5/27/24  9:50a   57.5   57.8   57.5    84   52.7   2.0   NNE   0.33   3.0   NNE   57.5   57.4   57.4   68.0  30.189  0.00  0.00   604     8.66    694     2.9  0.21   3.2   0.052   0.000   71.6    49   51.4   70.4   9.05  .0744    0.000   203    7    100.0   10 
 5/27/24 10:00a   56.5   57.5   56.5    84   51.7   2.0    NW   0.33   3.0     N   56.5   56.4   56.4   66.8  30.186  0.00  0.00   581     8.33    682     3.1  0.22   3.3   0.059   0.000   71.6    49   51.4   70.4   9.05  .0744    0.010   204    7    100.0   10 
 5/27/24 10:10a   56.4   56.5   56.2    85   51.9   2.0   WNW   0.33   4.0   WNW   56.4   56.3   56.3   66.6  30.186  0.00  0.00   645     9.25    696     3.4  0.24   3.7   0.060   0.000   71.6    49   51.4   70.4   9.05  .0744    0.000   204    7    100.0   10 
 5/27/24 10:20a   56.6   56.6   56.3    85   52.1   2.0    NW   0.33   4.0    NW   56.6   56.5   56.5   67.9  30.184  0.00  0.00   718    10.29    823     3.8  0.27   4.1   0.058   0.000   71.6    49   51.4   70.4   9.05  .0744    0.000   205    7    100.0   10 
 5/27/24 10:30a   56.9   56.9   56.6    85   52.4   3.0   WNW   0.50   5.0   WNW   56.9   56.8   56.8   68.1  30.182  0.00  0.00   742    10.64    863     4.0  0.29   4.2   0.056   0.000   71.7    49   51.5   70.5   9.05  .0744    0.000   202    7    100.0   10 
 5/27/24 10:40a   56.9   57.3   56.9    85   52.4   3.0   NNW   0.50   5.0   NNW   56.9   56.8   56.8   67.3  30.180  0.00  0.00   725    10.39    814     4.1  0.29   4.5   0.056   0.000   71.7    49   51.5   70.5   9.05  .0744    0.000   203    7    100.0   10 
 5/27/24 10:50a   56.7   56.9   56.6    85   52.2   4.0   NNW   0.67   6.0     N   56.6   56.6   56.5   67.3  30.182  0.00  0.00   668     9.58    726     4.2  0.30   4.7   0.058   0.000   71.7    49   51.5   70.5   9.05  .0744    0.000   204    7    100.0   10 
 5/27/24 11:00a   57.3   57.4   56.8    85   52.8   3.0   NNW   0.50   5.0   NNE   57.3   57.2   57.2   68.6  30.179  0.00  0.00   822    11.78    877     4.7  0.34   4.8   0.053   0.000   71.8    49   51.6   70.7   9.05  .0744    0.014   204    7    100.0   10 
 5/27/24 11:10a   57.6   57.6   57.3    85   53.1   3.0     N   0.50   5.0   NNW   57.6   57.5   57.5   68.2  30.176  0.00  0.00   736    10.55    847     4.6  0.33   5.1   0.051   0.000   71.8    49   51.6   70.7   9.05  .0743    0.000   203    7    100.0   10 
 5/27/24 11:20a   58.1   58.2   57.6    85   53.6   3.0     N   0.50   5.0     N   58.1   58.0   58.0   69.3  30.173  0.00  0.00   856    12.27    904     5.3  0.38   5.5   0.048   0.000   71.9    49   51.7   70.9   9.05  .0743    0.000   204    7    100.0   10 
 5/27/24 11:30a   58.5   58.6   58.2    85   54.0   3.0     N   0.50   5.0     N   58.5   58.5   58.5   69.5  30.173  0.00  0.00   855    12.26    912     5.5  0.39   5.8   0.045   0.000   71.9    49   51.7   70.9   9.05  .0743    0.000   203    7    100.0   10 
 5/27/24 11:40a   58.5   58.6   58.4    85   54.0   3.0   NNW   0.50   7.0    NW   58.5   58.5   58.5   70.4  30.173  0.00  0.00   933    13.37    947     6.0  0.43   6.1   0.045   0.000   72.0    50   52.3   71.1   9.25  .0743    0.000   205    7    100.0   10 
 5/27/24 11:50a   58.5   58.7   58.5    85   54.0   4.0     N   0.67   7.0   NNE   58.5   58.5   58.5   68.9  30.171  0.00  0.00   853    12.23    935     5.8  0.41   6.1   0.045   0.000   72.1    50   52.4   71.2   9.25  .0743    0.000   204    7    100.0   10 
 5/27/24 12:00p   58.0   58.5   57.9    85   53.5   5.0     N   0.83   9.0   WNW   57.6   57.9   57.5   68.5  30.171  0.00  0.00   790    11.32    965     5.6  0.40   6.3   0.049   0.000   72.1    50   52.4   71.2   9.25  .0743    0.017   201    7    100.0   10 
 5/27/24 12:10p   58.0   58.2   58.0    84   53.2   5.0     N   0.83   9.0     N   57.6   57.9   57.5   67.9  30.171  0.00  0.00   835    11.97    942     5.7  0.41   6.3   0.049   0.000   72.2    50   52.5   71.4   9.25  .0742    0.000   204    7    100.0   10 
 5/27/24 12:20p   57.1   58.0   57.0    85   52.6   5.0   NNW   0.83   9.0    NW   56.5   57.0   56.4   67.3  30.171  0.00  0.00   703    10.08    960     5.4  0.39   6.3   0.055   0.000   72.3    50   52.6   71.5   9.25  .0742    0.000   204    7    100.0   10 
 5/27/24 12:30p   57.5   57.5   57.0    86   53.3   5.0   NNW   0.83   8.0   NNW   57.0   57.4   56.9   68.2  30.171  0.00  0.00   965    13.83    974     6.5  0.46   6.6   0.052   0.000   72.3    50   52.6   71.5   9.25  .0742    0.000   203    7    100.0   10 
 5/27/24 12:40p   58.2   58.3   57.5    86   54.0   5.0     N   0.83   8.0     N   57.8   58.2   57.8   68.9  30.171  0.00  0.00   960    13.76    965     6.6  0.47   6.6   0.047   0.000   72.4    50   52.7   71.7   9.25  .0742    0.000   203    7    100.0   10 
 5/27/24 12:50p   57.9   58.3   57.9    85   53.4   5.0   NNW   0.83   9.0   NNW   57.5   57.8   57.4   68.3  30.171  0.00  0.00   959    13.75    963     6.7  0.48   6.7   0.049   0.000   72.5    50   52.8   71.8   9.25  .0742    0.000   204    7    100.0   10 
 5/27/24  1:00p   57.9   58.0   57.4    85   53.4   5.0   NNW   0.83   9.0    NW   57.5   57.8   57.4   68.3  30.171  0.00  0.00   964    13.82    965     6.7  0.48   6.7   0.049   0.000   72.5    50   52.8   71.8   9.25  .0742    0.018   205    7    100.0   10 
 5/27/24  1:10p   58.1   58.1   57.9    85   53.6   5.0   NNW   0.83   9.0    NW   57.7   58.0   57.6   68.5  30.173  0.00  0.00   966    13.85    972     6.7  0.48   6.8   0.048   0.000   72.6    50   52.9   71.9   9.25  .0742    0.000   202    7    100.0   10 
 5/27/24  1:20p   57.7   58.3   57.7    84   52.9   6.0   NNW   1.00   9.0     N   56.8   57.6   56.7   67.6  30.175  0.00  0.00   970    13.91    972     6.8  0.49   6.8   0.051   0.000   72.6    50   52.9   71.9   9.25  .0742    0.000   204    7    100.0   10 
 5/27/24  1:30p   57.8   57.8   57.4    85   53.3   6.0   NNW   1.00   9.0   NNW   57.0   57.7   56.9   67.8  30.176  0.00  0.00   969    13.89    972     6.8  0.49   6.8   0.050   0.000   72.7    50   53.0   72.1   9.25  .0742    0.000   203    7    100.0   10 
 5/27/24  1:40p   58.5   58.5   57.8    85   54.0   5.0   NNW   0.83   9.0     N   58.2   58.5   58.2   68.9  30.176  0.00  0.00   950    13.62    960     6.7  0.48   6.7   0.045   0.000   72.8    50   53.1   72.2   9.25  .0742    0.000   204    7    100.0   10 
 5/27/24  1:50p   59.1   59.1   58.6    85   54.6   5.0   NNW   0.83   9.0   NNW   58.9   59.1   58.9   69.6  30.175  0.00  0.00   943    13.52    946     6.7  0.48   6.7   0.041   0.000   72.9    50   53.2   72.4   9.25  .0741    0.000   203    7    100.0   10 
 5/27/24  2:00p   59.4   59.5   59.1    84   54.6   5.0   NNW   0.83   9.0     N   59.3   59.4   59.3   70.1  30.173  0.00  0.00   941    13.49    946     6.6  0.47   6.6   0.039   0.000   72.9    50   53.2   72.4   9.25  .0741    0.020   203    7    100.0   10 
 5/27/24  2:10p   59.6   59.6   59.4    84   54.8   6.0     N   1.00  11.0     N   59.1   59.6   59.1   69.8  30.174  0.00  0.00   931    13.35    937     6.5  0.46   6.6   0.038   0.000   73.0    50   53.3   72.5   9.25  .0741    0.000   205    7    100.0   10 
 5/27/24  2:20p   60.0   60.1   59.7    84   55.2   6.0     N   1.00  10.0     N   59.6   60.1   59.7   70.5  30.171  0.00  0.00   921    13.20    925     6.4  0.46   6.4   0.035   0.000   73.0    50   53.3   72.5   9.25  .0741    0.000   202    7    100.0   10 
 5/27/24  2:30p   60.0   60.1   59.8    84   55.2   6.0     N   1.00  11.0   NNW   59.6   60.1   59.7   70.5  30.169  0.00  0.00   908    13.02    916     6.2  0.44   6.3   0.035   0.000   73.1    50   53.4   72.6   9.25  .0741    0.000   203    7    100.0   10 
 5/27/24  2:40p   59.0   60.1   59.0    83   53.8   6.0     N   1.00  10.0     N   58.4   58.9   58.3   68.9  30.166  0.00  0.00   892    12.79    898     6.0  0.43   6.1   0.042   0.000   73.2    50   53.4   72.7   9.25  .0741    0.000   202    7    100.0   10 
 5/27/24  2:50p   59.4   59.7   58.9    83   54.2   7.0     N   1.17  10.0     N   58.5   59.4   58.5   69.0  30.165  0.00  0.00   877    12.57    886     5.9  0.42   5.9   0.039   0.000   73.2    50   53.4   72.7   9.25  .0741    0.000   203    7    100.0   10 
 5/27/24  3:00p   58.9   59.5   58.9    84   54.1   7.0     N   1.17  11.0     N   57.9   58.9   57.9   68.4  30.162  0.00  0.00   863    12.37    872     5.6  0.40   5.7   0.042   0.000   73.3    50   53.5   72.9   9.25  .0740    0.019   203    7    100.0   10 
 5/27/24  3:10p   58.6   59.1   58.6    85   54.1   8.0     N   1.33  11.0     N   56.8   58.6   56.8   66.9  30.162  0.00  0.00   848    12.16    856     5.4  0.39   5.5   0.044   0.000   73.3    50   53.5   72.9   9.25  .0740    0.000   204    7    100.0   10 
 5/27/24  3:20p   58.6   58.8   58.4    85   54.1   7.0     N   1.17  12.0    NE   57.5   58.6   57.5   68.1  30.159  0.00  0.00   829    11.88    838     5.2  0.37   5.3   0.044   0.000   73.0    50   53.3   72.5   9.25  .0741    0.000   204    7    100.0   10 
 5/27/24  3:30p   58.8   58.9   58.5    85   54.3   7.0     N   1.17  12.0   NNE   57.8   58.8   57.8   68.4  30.160  0.00  0.00   810    11.61    819     5.0  0.36   5.1   0.043   0.000   72.7    50   53.0   72.1   9.25  .0741    0.000   203    7    100.0   10 
 5/27/24  3:40p   59.5   59.5   58.8    85   55.0   7.0     N   1.17  10.0   NNW   58.6   59.5   58.6   69.2  30.157  0.00  0.00   791    11.34    800     4.7  0.34   4.8   0.038   0.000   72.5    50   52.8   71.8   9.25  .0742    0.000   204    7    100.0   10 
 5/27/24  3:50p   60.1   60.4   59.6    84   55.2   6.0     N   1.00  10.0   NNE   59.7   60.2   59.8   70.7  30.156  0.00  0.00   772    11.07    780     4.5  0.32   4.6   0.034   0.000   72.3    51   53.2   71.6   9.40  .0742    0.000   202    7    100.0   10 
 5/27/24  4:00p   60.5   60.5   60.0    85   56.0   6.0     N   1.00  11.0   ESE   60.2   60.7   60.4   71.3  30.155  0.00  0.00   750    10.75    758     4.2  0.30   4.3   0.031   0.000   72.5    51   53.3   71.9   9.40  .0741    0.017   203    7    100.0   10 
 5/27/24  4:10p   60.5   60.8   60.3    84   55.6   6.0     N   1.00  10.0     N   60.2   60.6   60.3   71.3  30.156  0.00  0.00   729    10.45    740     4.0  0.29   4.1   0.031   0.000   72.8    51   53.6   72.3   9.39  .0741    0.000   204    7    100.0   10 
 5/27/24  4:20p   60.3   60.6   60.3    83   55.1   7.0     N   1.17  11.0   NNE   59.6   60.3   59.6   70.6  30.155  0.00  0.00   713    10.22    721     3.7  0.26   3.8   0.033   0.000   73.0    51   53.8   72.6   9.39  .0740    0.000   204    7    100.0   10 
 5/27/24  4:30p   60.4   60.4   59.9    85   55.9   6.0     N   1.00  10.0   NNW   60.1   60.5   60.2   71.3  30.153  0.00  0.00   686     9.83    722     3.4  0.24   3.5   0.032   0.000   73.2    51   54.0   72.8   9.39  .0740    0.000   202    7    100.0   10 
 5/27/24  4:40p   60.5   60.7   60.1    84   55.6   6.0     N   1.00  11.0   NNW   60.2   60.6   60.3   72.6  30.151  0.00  0.00   715    10.25    758     3.3  0.24   3.4   0.031   0.000   73.3    51   54.1   73.0   9.38  .0740    0.000   205    7    100.0   10 
 5/27/24  4:50p   59.8   60.5   59.7    85   55.3   7.0     N   1.17  13.0   NNE   59.0   59.9   59.1   71.3  30.148  0.00  0.00   694     9.95    819     2.9  0.21   3.2   0.036   0.000   73.5    51   54.3   73.2   9.38  .0739    0.000   203    7    100.0   10 
 5/27/24  5:00p   59.3   59.8   59.3    85   54.8   8.0     N   1.33  12.0     N   57.7   59.3   57.7   68.4  30.146  0.00  0.00   622     8.92    668     2.7  0.19   2.8   0.040   0.000   73.5    51   54.3   73.2   9.38  .0739    0.015   203    7    100.0   10 
 5/27/24  5:10p   58.9   59.3   58.9    85   54.4   7.0     N   1.17  11.0   NNW   57.9   58.9   57.9   68.8  30.146  0.00  0.00   582     8.34    596     2.4  0.17   2.5   0.042   0.000   73.6    51   54.4   73.3   9.38  .0739    0.000   204    7    100.0   10 
 5/27/24  5:20p   58.9   59.1   58.8    86   54.7   7.0     N   1.17  13.0   NNE   57.9   58.9   57.9   68.8  30.144  0.00  0.00   556     7.97    571     2.2  0.16   2.3   0.042   0.000   73.7    51   54.4   73.4   9.38  .0739    0.000   205    7    100.0   10 
 5/27/24  5:30p   58.8   59.0   58.7    86   54.6   8.0     N   1.33  12.0   NNE   57.1   58.8   57.1   67.4  30.142  0.00  0.00   526     7.54    538     2.0  0.14   2.1   0.043   0.000   73.7    51   54.4   73.4   9.38  .0739    0.000   202    7    100.0   10 
 5/27/24  5:40p   59.8   59.8   58.8    86   55.6   6.0   NNE   1.00  12.0   NNE   59.4   59.9   59.5   71.3  30.138  0.00  0.00   529     7.58    580     1.8  0.13   1.9   0.036   0.000   73.8    51   54.5   73.6   9.37  .0739    0.000   203    7    100.0   10 
 5/27/24  5:50p   59.5   60.0   59.4    86   55.3   7.0   NNE   1.17  13.0   NNE   58.6   59.6   58.7   69.3  30.137  0.00  0.00   467     6.69    563     1.5  0.11   1.7   0.038   0.000   73.9    51   54.6   73.7   9.37  .0738    0.000   199    7    100.0   10 
 5/27/24  6:00p   59.8   59.9   59.5    85   55.3   6.0   NNE   1.00  12.0    NE   59.4   59.9   59.5   70.5  30.138  0.00  0.00   451     6.47    471     1.4  0.10   1.4   0.036   0.000   74.0    51   54.7   73.8   9.37  .0738    0.011   204    7    100.0   10 
 5/27/24  6:10p   59.6   59.9   59.5    86   55.4   6.0   NNE   1.00  11.0   NNW   59.1   59.7   59.2   70.0  30.138  0.00  0.00   421     6.04    445     1.2  0.09   1.3   0.038   0.000   74.1    51   54.8   73.9   9.37  .0738    0.000   202    7    100.0   10 
 5/27/24  6:20p   59.7   59.9   59.5    85   55.2   7.0   NNE   1.17  15.0    NE   58.8   59.8   58.9   70.3  30.135  0.00  0.00   427     6.12    448     1.0  0.07   1.1   0.037   0.000   74.1    51   54.8   73.9   9.37  .0738    0.000   203    7    100.0   10 
 5/27/24  6:30p   59.1   59.7   59.1    85   54.6   6.0   NNE   1.00  13.0     N   58.5   59.1   58.5   65.7  30.134  0.00  0.00   250     3.58    323     0.8  0.06   0.9   0.041   0.000   74.2    51   54.9   74.1   9.37  .0738    0.000   202    7    100.0   10 
 5/27/24  6:40p   58.6   59.1   58.5    86   54.4   8.0   NNE   1.33  13.0   NNE   56.8   58.6   56.8   63.4  30.134  0.00  0.00   262     3.76    392     0.7  0.05   0.7   0.044   0.000   74.4    51   55.1   74.4   9.36  .0738    0.000   205    7    100.0   10 
 5/27/24  6:50p   58.1   58.6   58.0    86   53.9   8.0   NNE   1.33  14.0   NNE   56.2   58.0   56.1   62.0  30.134  0.00  0.00   223     3.20    274     0.5  0.04   0.6   0.048   0.000   74.4    51   55.1   74.4   9.36  .0738    0.000   204    7    100.0   10 
 5/27/24  7:00p   57.8   58.1   57.8    86   53.6   7.0   NNE   1.17  12.0    NE   56.6   57.7   56.5   63.1  30.135  0.00  0.00   234     3.35    290     0.5  0.04   0.5   0.050   0.000   74.5    50   54.6   74.4   9.25  .0738    0.007   202    7    100.0   10 
 5/27/24  7:10p   57.3   57.8   57.3    87   53.5   8.0   NNE   1.33  13.0   NNE   55.3   57.3   55.3   59.3  30.137  0.00  0.00   157     2.25    229     0.0  0.00   0.0   0.053   0.000   74.4    50   54.5   74.3   9.25  .0738    0.000   202    7    100.0   10 
 5/27/24  7:20p   57.3   57.4   57.2    87   53.5   7.0   NNE   1.17  11.0    NE   56.0   57.3   56.0   60.6  30.138  0.00  0.00   172     2.47    214     0.0  0.00   0.0   0.053   0.000   74.0    50   54.2   73.7   9.25  .0739    0.000   204    7    100.0   10 
 5/27/24  7:30p   57.0   57.3   57.0    87   53.2   7.0   NNE   1.17  11.0     N   55.6   57.0   55.6   57.6  30.140  0.00  0.00   105     1.51    144     0.0  0.00   0.0   0.056   0.000   73.8    51   54.5   73.6   9.37  .0739    0.000   203    7    100.0   10 
 5/27/24  7:40p   56.7   57.0   56.6    88   53.2   5.0    NE   0.83   9.0   NNE   56.1   56.7   56.1   54.4  30.141  0.00  0.00    58     0.83     72     0.0  0.00   0.0   0.058   0.000   73.6    51   54.4   73.3   9.38  .0739    0.000   203    7    100.0   10 
 5/27/24  7:50p   56.7   56.7   56.6    88   53.2   5.0    NE   0.83   9.0   NNE   56.1   56.7   56.1   54.6  30.143  0.00  0.00    65     0.93     76     0.0  0.00   0.0   0.058   0.000   73.5    51   54.3   73.2   9.38  .0739    0.000   202    7    100.0   10 
 5/27/24  8:00p   56.9   57.0   56.7    87   53.1   4.0    NE   0.67  10.0   NNE   56.9   56.9   56.9   55.3  30.141  0.00  0.00    63     0.90     74     0.0  0.00   0.0   0.056   0.000   73.5    51   54.3   73.2   9.38  .0739    0.003   203    7    100.0   10 
 5/27/24  8:10p   56.6   57.0   56.6    87   52.8   4.0    NE   0.67   9.0   NNE   56.5   56.6   56.5   54.3  30.143  0.00  0.00    36     0.52     40     0.0  0.00   0.0   0.058   0.000   73.4    51   54.2   73.1   9.38  .0739    0.000   204    7    100.0   10 
 5/27/24  8:20p   56.3   56.6   56.3    88   52.8   4.0    NE   0.67   8.0   NNE   56.2   56.3   56.2   53.8  30.143  0.00  0.00    27     0.39     28     0.0  0.00   0.0   0.060   0.000   73.3    51   54.1   73.0   9.38  .0740    0.000   204    7    100.0   10 
 5/27/24  8:30p   55.8   56.3   55.8    88   52.3   5.0    NE   0.83   9.0   NNE   55.1   55.8   55.1   52.5  30.141  0.00  0.00    17     0.24     21     0.0  0.00   0.0   0.064   0.000   73.1    51   53.9   72.7   9.39  .0740    0.000   204    7    100.0   10 
 5/27/24  8:40p   55.5   55.8   55.5    89   52.3   4.0    NE   0.67   8.0    NE   55.2   55.6   55.3   52.6  30.141  0.00  0.00    11     0.16     14     0.0  0.00   0.0   0.066   0.000   72.9    51   53.7   72.5   9.39  .0740    0.000   203    7    100.0   10 
 5/27/24  8:50p   55.1   55.5   55.1    89   51.9   2.0    NE   0.33   5.0    NE   55.1   55.2   55.2   52.3  30.141  0.00  0.00     4     0.06      7     0.0  0.00   0.0   0.069   0.000   72.9    51   53.7   72.5   9.39  .0740    0.000   203    7    100.0   10 
 5/27/24  9:00p   55.1   55.2   55.0    89   51.9   3.0    NE   0.50   5.0   NNE   55.1   55.2   55.2   52.2  30.142  0.00  0.00     0     0.00      0     0.0  0.00   0.0   0.069   0.000   73.0    51   53.8   72.6   9.39  .0740    0.001   204    7    100.0   10 
 5/27/24  9:10p   54.9   55.1   54.9    89   51.7   2.0    NE   0.33   5.0    NE   54.9   55.0   55.0   52.0  30.143  0.00  0.00     0     0.00      0     0.0  0.00   0.0   0.070   0.000   73.0    51   53.8   72.6   9.39  .0740    0.000   203    7    100.0   10 
 5/27/24  9:20p   54.8   54.9   54.8    89   51.6   2.0    NE   0.33   5.0   ENE   54.8   54.9   54.9   51.9  30.144  0.00  0.00     0     0.00      0     0.0  0.00   0.0   0.071   0.000   73.0    51   53.8   72.6   9.39  .0740    0.000   202    7    100.0   10 
 5/27/24  9:30p   54.7   54.8   54.6    89   51.5   3.0    NE   0.50   7.0    NE   54.7   54.8   54.8   51.8  30.146  0.00  0.00     0     0.00      0     0.0  0.00   0.0   0.072   0.000   73.0    52   54.3   72.7   9.59  .0740    0.000   202    7    100.0   10 
 5/27/24  9:40p   54.8   54.8   54.7    90   51.9   3.0    NE   0.50   5.0    NE   54.8   54.9   54.9   51.9  30.147  0.00  0.00     0     0.00      0     0.0  0.00   0.0   0.071   0.000   73.0    51   53.8   72.6   9.39  .0740    0.000   203    7    100.0   10 
 5/27/24  9:50p   54.8   54.8   54.7    90   51.9   2.0    NE   0.33   4.0   ENE   54.8   54.9   54.9   51.9  30.150  0.00  0.00     0     0.00      0     0.0  0.00   0.0   0.071   0.000   73.0    51   53.8   72.6   9.39  .0740    0.000   203    7    100.0   10 
 5/27/24 10:00p   54.6   54.8   54.6    90   51.7   2.0   ENE   0.33   5.0    NE   54.6   54.7   54.7   51.7  30.151  0.00  0.00     0     0.00      0     0.0  0.00   0.0   0.072   0.000   73.0    51   53.8   72.6   9.39  .0740    0.000   204    7    100.0   10 
 5/27/24 10:10p   54.5   54.6   54.5    90   51.6   2.0   ENE   0.33   6.0    NE   54.5   54.6   54.6   51.6  30.150  0.00  0.00     0     0.00      0     0.0  0.00   0.0   0.073   0.000   73.0    51   53.8   72.6   9.39  .0740    0.000   201    7    100.0   10 
 5/27/24 10:20p   54.5   54.5   54.5    90   51.6   2.0   ENE   0.33   5.0   ENE   54.5   54.6   54.6   51.6  30.150  0.00  0.00     0     0.00      0     0.0  0.00   0.0   0.073   0.000   72.9    51   53.7   72.5   9.39  .0741    0.000   200    7    100.0   10 
 5/27/24 10:30p   54.4   54.5   54.3    90   51.5   2.0   ENE   0.33   6.0     E   54.4   54.5   54.5   51.5  30.151  0.00  0.00     0     0.00      0     0.0  0.00   0.0   0.074   0.000   72.9    51   53.7   72.5   9.39  .0741    0.000   205    7    100.0   10 
 5/27/24 10:40p   54.3   54.4   54.2    90   51.4   2.0   ENE   0.33   5.0    NE   54.3   54.4   54.4   51.4  30.149  0.00  0.00     0     0.00      0     0.0  0.00   0.0   0.074   0.000   72.9    51   53.7   72.5   9.39  .0741    0.000   204    7    100.0   10 
 5/27/24 10:50p   54.1   54.3   54.1    90   51.2   2.0    NE   0.33   5.0    NE   54.1   54.2   54.2   51.2  30.149  0.00  0.00     0     0.00      0     0.0  0.00   0.0   0.076   0.000   72.8    51   53.6   72.3   9.39  .0741    0.000   204    7    100.0   10 
 5/27/24 11:00p   54.0   54.2   54.0    90   51.1   2.0   ENE   0.33   5.0   ENE   54.0   54.1   54.1   51.1  30.148  0.00  0.00     0     0.00      0     0.0  0.00   0.0   0.076   0.000   72.8    51   53.6   72.3   9.39  .0741    0.000   204    7    100.0   10 
 5/27/24 11:10p   54.0   54.0   53.9    90   51.1   2.0   ENE   0.33   4.0   ENE   54.0   54.1   54.1   51.1  30.149  0.00  0.00     0     0.00      0     0.0  0.00   0.0   0.076   0.000   72.7    51   53.5   72.2   9.40  .0741    0.000   204    7    100.0   10 
 5/27/24 11:20p   53.9   54.0   53.8    90   51.0   1.0   ENE   0.17   4.0   ENE   53.9   54.0   54.0   51.0  30.150  0.00  0.00     0     0.00      0     0.0  0.00   0.0   0.077   0.000   72.7    51   53.5   72.2   9.40  .0741    0.000   202    7    100.0   10 
 5/27/24 11:30p   53.8   53.9   53.8    90   50.9   1.0   ENE   0.17   4.0   ENE   53.8   53.9   53.9   50.8  30.148  0.00  0.00     0     0.00      0     0.0  0.00   0.0   0.078   0.000   72.7    51   53.5   72.2   9.40  .0741    0.000   202    7    100.0   10 
 5/27/24 11:40p   53.7   53.8   53.7    91   51.1   1.0   ENE   0.17   3.0   ENE   53.7   53.8   53.8   50.8  30.146  0.00  0.00     0     0.00      0     0.0  0.00   0.0   0.078   0.000   72.6    51   53.4   72.0   9.40  .0741    0.000   204    7    100.0   10 
 5/27/24 11:50p   53.5   53.7   53.5    91   50.9   1.0    NE   0.17   2.0    NE   53.5   53.6   53.6   50.5  30.146  0.00  0.00     0     0.00      0     0.0  0.00   0.0   0.080   0.000   72.6    51   53.4   72.0   9.40  .0741    0.000   202    7    100.0   10 
 5/28/24 12:00a   53.4   53.6   53.4    91   50.8   1.0   ENE   0.17   3.0   ENE   53.4   53.5   53.5   50.4  30.145  0.00  0.00     0     0.00      0     0.0  0.00   0.0   0.081   0.000   72.6    51   53.4   72.0   9.40  .0741    0.000   200    7    100.0   10 
 5/28/24 12:10a   53.3   53.4   53.3    91   50.7   1.0    NE   0.17   3.0   ENE   53.3   53.4   53.4   50.3  30.145  0.00  0.00     0     0.00      0     0.0  0.00   0.0   0.081   0.000   72.5    51   53.3   71.9   9.40  .0741    0.000   201    7    100.0   10 
 5/28/24 12:20a   53.1   53.3   53.0    91   50.5   0.0    NE   0.00   3.0   ENE   53.1   53.2   53.2   50.1  30.144  0.00  0.00     0     0.00      0     0.0  0.00   0.0   0.083   0.000   72.5    51   53.3   71.9   9.40  .0741    0.000   203    7    100.0   10 
 5/28/24 12:30a   52.8   53.0   52.8    91   50.2   0.0   ENE   0.00   2.0   ENE   52.8   53.0   53.0   49.9  30.142  0.00  0.00     0     0.00      0     0.0  0.00   0.0   0.085   0.000   72.4    51   53.2   71.7   9.40  .0741    0.000   201    7    100.0   10 
 5/28/24 12:40a   52.9   52.9   52.8    91   50.3   0.0   ENE   0.00   1.0   ENE   52.9   53.0   53.0   49.9  30.141  0.00  0.00     0     0.00      0     0.0  0.00   0.0   0.084   0.000   72.4    51   53.2   71.7   9.40  .0741    0.000   203    7    100.0   10 
 5/28/24 12:50a   52.8   52.9   52.7    91   50.2   0.0   ENE   0.00   1.0   ENE   52.8   53.0   53.0   49.9  30.139  0.00  0.00     0     0.00      0     0.0  0.00   0.0   0.085   0.000   72.3    51   53.2   71.6   9.40  .0741    0.000   203    7    100.0   10 
 5/28/24  1:00a   52.7   52.8   52.7    92   50.4   0.0   ENE   0.00   1.0   ENE   52.7   52.9   52.9   49.8  30.137  0.00  0.00     0     0.00      0     0.0  0.00   0.0   0.085   0.000   72.3    51   53.2   71.6   9.40  .0741    0.000   201    7    100.0   10 
 5/28/24  1:10a   52.6   52.8   52.6    91   50.0   0.0   ENE   0.00   1.0   ENE   52.6   52.8   52.8   49.7  30.138  0.00  0.00     0     0.00      0     0.0  0.00   0.0   0.086   0.000   72.2    51   53.1   71.5   9.41  .0741    0.000   201    7    100.0   10 
 5/28/24  1:20a   52.5   52.6   52.5    92   50.2   0.0     E   0.00   2.0     E   52.5   52.7   52.7   49.6  30.136  0.00  0.00     0     0.00      0     0.0  0.00   0.0   0.087   0.000   72.2    51   53.1   71.5   9.41  .0741    0.000   204    7    100.0   10 
 5/28/24  1:30a   52.5   52.6   52.5    92   50.2   0.0     E   0.00   1.0     E   52.5   52.7   52.7   49.6  30.135  0.00  0.00     0     0.00      0     0.0  0.00   0.0   0.087   0.000   72.2    51   53.1   71.5   9.41  .0741    0.000   205    7    100.0   10 
 5/28/24  1:40a   52.3   52.5   52.3    92   50.0   0.0   ---   0.00   0.0   ---   52.3   52.5   52.5   49.4  30.136  0.00  0.00     0     0.00      0     0.0  0.00   0.0   0.088   0.000   72.1    51   53.0   71.3   9.41  .0742    0.000   204    7    100.0   10 
 5/28/24  1:50a   52.2   52.4   52.2    92   49.9   0.0     E   0.00   1.0     E   52.2   52.4   52.4   49.3  30.134  0.00  0.00     0     0.00      0     0.0  0.00   0.0   0.089   0.000   72.0    51   52.9   71.2   9.41  .0742    0.000   202    7    100.0   10 
 5/28/24  2:00a   52.1   52.2   51.9    92   49.8   0.0     E   0.00   1.0     E   52.1   52.3   52.3   49.2  30.137  0.00  0.00     0     0.00      0     0.0  0.00   0.0   0.090   0.000   72.0    51   52.9   71.2   9.41  .0742    0.000   204    7    100.0   10 
 5/28/24  2:10a   52.1   52.2   52.0    92   49.8   0.0     E   0.00   1.0     E   52.1   52.3   52.3   49.2  30.136  0.00  0.00     0     0.00      0     0.0  0.00   0.0   0.090   0.000   72.0    51   52.9   71.2   9.41  .0742    0.000   205    7    100.0   10 
 5/28/24  2:20a   52.1   52.2   51.9    93   50.1   0.0     E   0.00   1.0     E   52.1   52.4   52.4   49.3  30.136  0.00  0.00     0     0.00      0     0.0  0.00   0.0   0.090   0.000   71.9    51   52.8   71.0   9.41  .0742    0.000   204    7    100.0   10 
 5/28/24  2:30a   52.2   52.3   52.1    92   49.9   0.0   ---   0.00   0.0   ---   52.2   52.4   52.4   49.3  30.136  0.00  0.00     0     0.00      0     0.0  0.00   0.0   0.089   0.000   71.9    51   52.8   71.0   9.41  .0742    0.000   204    7    100.0   10 
 5/28/24  2:40a   52.0   52.3   52.0    92   49.7   0.0     E   0.00   1.0     E   52.0   52.2   52.2   49.1  30.135  0.00  0.00     0     0.00      0     0.0  0.00   0.0   0.090   0.000   71.8    51   52.7   70.9   9.41  .0742    0.000   203    7    100.0   10 
 5/28/24  2:50a   52.2   52.2   52.0    93   50.2   0.0     E   0.00   1.0     E   52.2   52.5   52.5   49.4  30.135  0.00  0.00     0     0.00      0     0.0  0.00   0.0   0.089   0.000   71.7    51   52.6   70.7   9.42  .0742    0.000   204    7    100.0   10 
 5/28/24  3:00a   52.4   52.4   52.1    93   50.4   0.0     E   0.00   1.0     E   52.4   52.6   52.6   49.5  30.134  0.00  0.00     0     0.00      0     0.0  0.00   0.0   0.087   0.000   71.7    51   52.6   70.7   9.42  .0742    0.000   204    7    100.0   10 
 5/28/24  3:10a   52.4   52.4   52.3    93   50.4   0.0     E   0.00   1.0     E   52.4   52.6   52.6   49.5  30.133  0.00  0.00     0     0.00      0     0.0  0.00   0.0   0.087   0.000   71.6    51   52.5   70.6   9.42  .0742    0.000   201    7    100.0   10 
 5/28/24  3:20a   52.3   52.4   52.3    93   50.3   0.0   ---   0.00   0.0   ---   52.3   52.5   52.5   49.4  30.131  0.00  0.00     0     0.00      0     0.0  0.00   0.0   0.088   0.000   71.6    51   52.5   70.6   9.42  .0742    0.000   202    7    100.0   10 
 5/28/24  3:30a   52.3   52.3   52.2    93   50.3   0.0     E   0.00   1.0     E   52.3   52.5   52.5   49.4  30.133  0.00  0.00     0     0.00      0     0.0  0.00   0.0   0.088   0.000   71.6    51   52.5   70.6   9.42  .0742    0.000   204    7    100.0   10 
 5/28/24  3:40a   52.2   52.3   52.2    93   50.2   0.0   ---   0.00   0.0   ---   52.2   52.5   52.5   49.4  30.129  0.00  0.00     0     0.00      0     0.0  0.00   0.0   0.089   0.000   71.5    51   52.4   70.4   9.42  .0742    0.000   203    7    100.0   10 
 5/28/24  3:50a   52.2   52.3   52.2    93   50.2   0.0     E   0.00   2.0     E   52.2   52.5   52.5   49.4  30.133  0.00  0.00     0     0.00      0     0.0  0.00   0.0   0.089   0.000   71.5    51   52.4   70.4   9.42  .0743    0.000   203    7    100.0   10 
 5/28/24  4:00a   52.0   52.3   52.0    93   50.0   1.0   SSW   0.17   2.0   SSE   52.0   52.3   52.3   49.2  30.132  0.00  0.00     0     0.00      0     0.0  0.00   0.0   0.090   0.000   71.4    51   52.3   70.3   9.42  .0743    0.000   203    7    100.0   10 
 5/28/24  4:10a   52.1   52.1   52.0    93   50.1   1.0     S   0.17   2.0     S   52.1   52.4   52.4   49.3  30.136  0.00  0.00     0     0.00      0     0.0  0.00   0.0   0.090   0.000   71.4    51   52.3   70.3   9.42  .0743    0.000   201    7    100.0   10 
 5/28/24  4:20a   52.0   52.0   51.9    94   50.3   0.0     S   0.00   2.0     S   52.0   52.3   52.3   49.2  30.137  0.00  0.00     0     0.00      0     0.0  0.00   0.0   0.090   0.000   71.3    51   52.2   70.1   9.42  .0743    0.000   203    7    100.0   10 
 5/28/24  4:30a   51.9   52.0   51.9    94   50.2   1.0     S   0.17   2.0     S   51.9   52.2   52.2   49.1  30.139  0.00  0.00     0     0.00      0     0.0  0.00   0.0   0.091   0.000   71.3    51   52.2   70.1   9.42  .0743    0.000   200    7    100.0   10 
 5/28/24  4:40a   51.8   51.9   51.7    94   50.1   0.0     S   0.00   2.0     S   51.8   52.1   52.1   49.0  30.139  0.00  0.00     0     0.00      0     0.0  0.00   0.0   0.092   0.000   71.2    51   52.1   70.0   9.43  .0743    0.000   203    7    100.0   10 
 5/28/24  4:50a   51.8   51.8   51.7    94   50.1   0.0     S   0.00   2.0     S   51.8   52.1   52.1   49.0  30.140  0.00  0.00     0     0.00      0     0.0  0.00   0.0   0.092   0.000   71.2    51   52.1   70.0   9.43  .0743    0.000   203    7    100.0   10 
 5/28/24  5:00a   51.7   51.8   51.7    94   50.0   0.0     S   0.00   1.0     S   51.7   52.0   52.0   48.9  30.138  0.00  0.00     0     0.00      0     0.0  0.00   0.0   0.092   0.000   71.2    51   52.1   70.0   9.43  .0743    0.000   199    7    100.0   10 
 5/28/24  5:10a   51.7   51.8   51.7    94   50.0   0.0     S   0.00   1.0     S   51.7   52.0   52.0   48.9  30.139  0.00  0.00     0     0.00      0     0.0  0.00   0.0   0.092   0.000   71.1    51   52.0   69.8   9.43  .0743    0.000   202    7    100.0   10 
 5/28/24  5:20a   51.8   51.8   51.7    94   50.1   0.0     S   0.00   2.0     S   51.8   52.1   52.1   49.0  30.140  0.00  0.00     0     0.00      0     0.0  0.00   0.0   0.092   0.000   71.1    51   52.0   69.8   9.43  .0743    0.000   204    7    100.0   10 
 5/28/24  5:30a   51.8   51.9   51.7    94   50.1   0.0     S   0.00   1.0     S   51.8   52.1   52.1   49.0  30.144  0.00  0.00     0     0.00      0     0.0  0.00   0.0   0.092   0.000   71.0    51   52.0   69.7   9.43  .0744    0.000   204    7    100.0   10 
 5/28/24  5:40a   51.7   51.8   51.7    94   50.0   0.0     S   0.00   2.0     S   51.7   52.0   52.0   48.9  30.146  0.00  0.00     0     0.00      0     0.0  0.00   0.0   0.092   0.000   71.0    51   52.0   69.7   9.43  .0744    0.000   201    7    100.0   10 
 5/28/24  5:50a   51.8   51.8   51.7    94   50.1   0.0     S   0.00   1.0     S   51.8   52.1   52.1   49.1  30.150  0.00  0.00     3     0.04      7     0.0  0.00   0.0   0.092   0.000   71.0    51   52.0   69.7   9.43  .0744    0.000   203    7    100.0   10 
 5/28/24  6:00a   51.7   51.8   51.7    94   50.0   0.0     S   0.00   1.0     S   51.7   52.0   52.0   49.2  30.154  0.00  0.00    11     0.16     14     0.0  0.00   0.0   0.092   0.000   71.0    51   52.0   69.7   9.43  .0744    0.000   204    7    100.0   10 
 5/28/24  6:10a   51.9   51.9   51.7    94   50.2   0.0     S   0.00   2.0     S   51.9   52.2   52.2   49.5  30.152  0.00  0.00    17     0.24     18     0.0  0.00   0.0   0.091   0.000   71.0    51   52.0   69.7   9.43  .0744    0.000   202    7    100.0   10 
 5/28/24  6:20a   52.0   52.0   51.8    95   50.6   0.0     S   0.00   2.0     S   52.0   52.3   52.3   49.7  30.152  0.00  0.00    22     0.32     25     0.0  0.00   0.0   0.090   0.000   71.0    51   52.0   69.7   9.43  .0744    0.000   200    7    100.0   10 
 5/28/24  6:30a   52.2   52.2   52.0    95   50.8   0.0   SSE   0.00   2.0   SSE   52.2   52.5   52.5   50.0  30.161  0.00  0.00    27     0.39     30     0.0  0.00   0.0   0.089   0.000   71.0    51   52.0   69.7   9.43  .0744    0.000   202    7    100.0   10 
 5/28/24  6:40a   52.3   52.3   52.2    95   50.9   0.0   SSE   0.00   1.0   SSE   52.3   52.6   52.6   50.4  30.157  0.00  0.00    38     0.54     44     0.0  0.00   0.0   0.088   0.000   71.0    51   52.0   69.7   9.43  .0744    0.000   203    7    100.0   10 
 5/28/24  6:50a   52.4   52.4   52.3    95   51.0   0.0   SSE   0.00   1.0   SSE   52.4   52.7   52.7   50.7  30.160  0.00  0.00    46     0.66     47     0.0  0.00   0.0   0.087   0.000   71.0    51   52.0   69.7   9.43  .0744    0.000   203    7    100.0   10 
 5/28/24  7:00a   52.5   52.5   52.3    95   51.1   0.0   SSE   0.00   2.0   SSE   52.5   52.8   52.8   50.7  30.162  0.00  0.00    41     0.59     49     0.0  0.00   0.0   0.087   0.000   71.0    50   51.4   69.6   9.25  .0744    0.001   200    7    100.0   10 
 5/28/24  7:10a   52.3   52.5   52.3    95   50.9   1.0     S   0.17   4.0   SSE   52.3   52.6   52.6   50.2  30.166  0.00  0.00    32     0.46     39     0.0  0.00   0.0   0.088   0.000   71.0    51   52.0   69.7   9.43  .0744    0.000   202    7    100.0   10 
 5/28/24  7:20a   52.5   52.5   52.2    95   51.1   1.0     S   0.17   2.0     S   52.5   52.8   52.8   54.1  30.165  0.00  0.00    72     1.03    100     0.0  0.00   0.0   0.087   0.000   71.0    51   52.0   69.7   9.43  .0744    0.000   205    7    100.0   10 
 5/28/24  7:30a   52.7   52.8   52.5    95   51.3   1.0     S   0.17   4.0   SSW   52.7   53.0   53.0   55.6  30.168  0.00  0.00   106     1.52    111     0.0  0.00   0.0   0.085   0.000   71.1    51   52.0   69.8   9.43  .0744    0.000   202    7    100.0   10 
 5/28/24  7:40a   52.9   52.9   52.7    95   51.5   1.0     S   0.17   2.0     S   52.9   53.2   53.2   57.1  30.169  0.00  0.00   143     2.05    195     0.2  0.01   0.5   0.084   0.000   71.2    51   52.1   70.0   9.43  .0744    0.000   204    7    100.0   10 
 5/28/24  7:50a   53.0   53.1   52.9    95   51.6   1.0     S   0.17   2.0     S   53.0   53.3   53.3   59.7  30.172  0.00  0.00   234     3.35    325     0.5  0.04   0.5   0.083   0.000   71.2    51   52.1   70.0   9.43  .0744    0.000   203    7    100.0   10 
 5/28/24  8:00a   53.2   53.2   53.0    95   51.8   0.0     S   0.00   1.0     S   53.2   53.5   53.5   59.2  30.171  0.00  0.00   196     2.81    206     0.5  0.04   0.6   0.082   0.000   71.3    50   51.7   70.1   9.25  .0744    0.003   203    7    100.0   10 
 5/28/24  8:10a   53.2   53.3   53.2    95   51.8   1.0    SW   0.17   3.0    SW   53.2   53.5   53.5   60.0  30.176  0.00  0.00   225     3.23    237     0.6  0.04   0.7   0.082   0.000   71.3    50   51.7   70.1   9.25  .0744    0.000   203    7    100.0   10 
 5/28/24  8:20a   53.3   53.3   53.2    95   51.9   1.0    SW   0.17   3.0    SW   53.3   53.6   53.6   59.8  30.175  0.00  0.00   223     3.20    306     0.7  0.05   0.7   0.081   0.000   71.3    50   51.7   70.1   9.25  .0744    0.000   204    7    100.0   10 
 5/28/24  8:30a   53.2   53.3   53.2    95   51.8   2.0     S   0.33   4.0     S   53.2   53.5   53.5   58.3  30.172  0.00  0.00   185     2.65    193     0.6  0.04   0.7   0.082   0.000   71.4    50   51.8   70.2   9.25  .0744    0.000   204    7    100.0   10 
 5/28/24  8:40a   53.2   53.3   53.2    95   51.8   2.0     S   0.33   5.0   SSE   53.2   53.5   53.5   58.7  30.176  0.00  0.00   200     2.87    204     0.8  0.06   0.8   0.082   0.000   71.4    50   51.8   70.2   9.25  .0744    0.000   205    7    100.0   10 
 5/28/24  8:50a   53.3   53.3   53.1    95   51.9   4.0     S   0.67   6.0   SSE   52.7   53.6   53.0   58.6  30.178  0.00  0.00   222     3.18    239     0.9  0.06   1.0   0.081   0.000   71.4    50   51.8   70.2   9.25  .0744    0.000   203    7    100.0   10 
 5/28/24  9:00a   53.2   53.3   53.2    95   51.8   5.0     S   0.83   8.0   SSE   51.9   53.5   52.2   58.9  30.185  0.00  0.00   271     3.88    404     1.0  0.07   1.2   0.082   0.000   71.5    50   51.9   70.3   9.25  .0744    0.004   203    7    100.0   10 
 5/28/24  9:10a   53.4   53.5   53.2    95   52.0   7.0     S   1.17  10.0     S   51.3   53.7   51.6   55.3  30.183  0.00  0.00   175     2.51    190     0.8  0.06   0.8   0.081   0.000   71.5    50   51.9   70.3   9.25  .0744    0.000   205    7    100.0   10 
 5/28/24  9:20a   53.4   53.5   53.3    95   52.0   8.0     S   1.33  13.0   SSE   50.6   53.7   50.9   54.8  30.184  0.00  0.00   191     2.74    218     0.9  0.06   1.0   0.081   0.000   71.5    50   51.9   70.3   9.25  .0744    0.000   202    7    100.0   10 
 5/28/24  9:30a   53.6   53.6   53.4    95   52.2   7.0     S   1.17  12.0     S   51.5   53.8   51.7   56.3  30.184  0.00  0.00   220     3.15    225     1.0  0.07   1.1   0.079   0.000   71.5    51   52.4   70.4   9.42  .0744    0.000   203    7    100.0   10 
 5/28/24  9:40a   53.5   53.7   53.5    95   52.1   7.0     S   1.17  11.0     S   51.4   53.8   51.7   55.3  30.185  0.00  0.00   185     2.65    206     0.9  0.06   1.0   0.080   0.000   71.6    51   52.5   70.6   9.42  .0744    0.000   203    7    100.0   10 
 5/28/24  9:50a   53.3   53.6   53.3    95   51.9   9.0     S   1.50  12.0     S   49.8   53.6   50.1   52.4  30.186  0.00  0.00   149     2.14    163     0.8  0.06   0.9   0.081   0.000   71.6    50   52.0   70.5   9.25  .0744    0.000   204    7    100.0   10 
 5/28/24 10:00a   53.4   53.4   53.3    96   52.3   9.0     S   1.50  13.0     S   49.9   53.7   50.2   52.3  30.184  0.00  0.00   147     2.11    156     0.9  0.06   1.0   0.081   0.000   71.6    50   52.0   70.5   9.25  .0744    0.004   203    7    100.0   10 
 5/28/24 10:10a   53.4   53.5   53.3    96   52.3   8.0     S   1.33  12.0   SSE   50.6   53.7   50.9   53.6  30.185  0.00  0.00   173     2.48    190     1.0  0.07   1.1   0.081   0.000   71.6    50   52.0   70.5   9.25  .0744    0.000   202    7    100.0   10 
 5/28/24 10:20a   53.5   53.5   53.4    96   52.4   9.0     S   1.50  15.0   SSE   50.0   53.8   50.3   52.9  30.186  0.00  0.00   172     2.47    186     1.1  0.08   1.1   0.080   0.000   71.7    50   52.1   70.6   9.25  .0744    0.000   199    7    100.0   10 
 5/28/24 10:30a   53.5   53.6   53.5    96   52.4   9.0     S   1.50  15.0     S   50.0   53.8   50.3   52.9  30.189  0.00  0.00   175     2.51    188     1.1  0.08   1.2   0.080   0.000   71.7    50   52.1   70.6   9.25  .0744    0.000   204    7    100.0   10 
 5/28/24 10:40a   53.6   53.7   53.5    96   52.5   9.0     S   1.50  13.0     S   50.1   53.9   50.4   53.0  30.191  0.00  0.00   178     2.55    192     1.2  0.09   1.3   0.079   0.000   71.6    50   52.0   70.5   9.25  .0744    0.000   204    7    100.0   10 
 5/28/24 10:50a   53.5   53.7   53.5    96   52.4   9.0     S   1.50  12.0     S   50.0   53.8   50.3   52.0  30.194  0.00  0.00   148     2.12    174     1.0  0.07   1.2   0.080   0.000   71.7    51   52.6   70.7   9.42  .0744    0.000   204    7    100.0   10 
 5/28/24 11:00a   53.4   53.5   53.4    96   52.3   9.0     S   1.50  14.0     S   49.9   53.7   50.2   50.3  30.196  0.00  0.00    80     1.15     95     0.6  0.04   0.6   0.081   0.000   71.7    51   52.6   70.7   9.42  .0744    0.003   203    7    100.0   10 
 5/28/24 11:10a   53.5   53.5   53.4    96   52.4   8.0     S   1.33  12.0   SSE   50.7   53.8   51.0   53.4  30.196  0.00  0.00   175     2.51    213     1.2  0.09   1.5   0.080   0.000   71.6    51   52.5   70.6   9.42  .0744    0.000   205    7    100.0   10 
 5/28/24 11:20a   53.4   53.5   53.4    96   52.3   9.0     S   1.50  14.0     S   49.9   53.7   50.2   53.0  30.201  0.00  0.00   201     2.88    234     1.4  0.10   1.6   0.081   0.000   71.7    51   52.6   70.7   9.42  .0744    0.000   204    7    100.0   10 
 5/28/24 11:30a   53.5   53.5   53.3    96   52.4   9.0     S   1.50  12.0     S   50.0   53.8   50.3   52.3  30.207  0.00  0.00   165     2.37    213     1.3  0.09   1.6   0.080   0.000   71.7    51   52.6   70.7   9.42  .0744    0.000   204    7    100.0   10 
 5/28/24 11:40a   53.5   53.6   53.5    96   52.4   7.0     S   1.17  10.0   SSW   51.4   53.8   51.7   53.7  30.211  0.00  0.00   159     2.28    195     1.2  0.09   1.4   0.080   0.000   71.8    51   52.7   70.9   9.41  .0744    0.000   203    7    100.0   10 
 5/28/24 11:50a   53.6   53.7   53.5    96   52.5   7.0     S   1.17  12.0     S   51.5   53.9   51.8   53.4  30.215  0.00  0.00   143     2.05    169     1.1  0.08   1.3   0.079   0.000   71.8    51   52.7   70.9   9.41  .0744    0.000   203    7    100.0   10 
 5/28/24 12:00p   53.5   53.5   53.4    96   52.4   8.0     S   1.33  11.0     S   50.7   53.8   51.0   51.8  30.214  0.00  0.00   112     1.61    202     0.9  0.06   1.6   0.080   0.000   71.8    50   52.2   70.8   9.25  .0744    0.003   203    7    100.0   10 
 5/28/24 12:10p   53.7   53.7   53.5    97   52.9   7.0     S   1.17  11.0   SSE   51.6   54.0   51.9   56.7  30.214  0.00  0.00   289     4.14    348     2.2  0.16   2.6   0.078   0.000   71.8    51   52.7   70.9   9.41  .0744    0.000   202    7    100.0   10 
 5/28/24 12:20p   53.9   54.0   53.7    97   53.1   7.0     S   1.17  10.0   SSW   51.9   54.2   52.2   57.1  30.217  0.01  0.00   295     4.23    350     2.3  0.16   2.6   0.077   0.000   71.9    50   52.2   70.9   9.25  .0744    0.000   204    7    100.0   10 
 5/28/24 12:30p   54.0   54.0   53.8    97   53.2   7.0     S   1.17  10.0     S   52.0   54.3   52.3   57.4  30.218  0.00  0.00   307     4.40    359     2.4  0.17   2.7   0.076   0.000   72.0    50   52.3   71.1   9.25  .0744    0.000   205    7    100.0   10 
 5/28/24 12:40p   54.2   54.2   54.0    97   53.4   6.0     S   1.00  10.0     S   52.6   54.5   52.9   60.0  30.219  0.00  0.00   403     5.78    485     2.9  0.21   3.6   0.075   0.000   72.1    50   52.4   71.2   9.25  .0744    0.000   203    7    100.0   10 
 5/28/24 12:50p   54.0   54.4   54.0    97   53.2   8.0     S   1.33  12.0     S   51.3   54.3   51.6   58.5  30.222  0.00  0.00   419     6.01    432     3.2  0.23   3.3   0.076   0.000   72.2    50   52.5   71.4   9.25  .0744    0.000   202    7    100.0   10 
 5/28/24  1:00p   53.9   54.1   53.8    97   53.1   8.0     S   1.33  12.0   SSE   51.2   54.2   51.5   58.6  30.222  0.00  0.00   434     6.22    464     3.5  0.25   3.7   0.077   0.000   72.2    50   52.5   71.4   9.25  .0744    0.007   205    7    100.0   10 
 5/28/24  1:10p   54.1   54.1   53.9    97   53.3   8.0     S   1.33  12.0   SSE   51.4   54.4   51.7   60.1  30.221  0.00  0.00   521     7.47    645     3.9  0.28   4.5   0.076   0.000   72.3    50   52.6   71.5   9.25  .0744    0.000   199    7    100.0   10 
 5/28/24  1:20p   54.0   54.1   53.9    97   53.2   8.0     S   1.33  11.0     S   51.3   54.3   51.6   59.4  30.221  0.00  0.00   475     6.81    573     3.5  0.25   3.9   0.076   0.000   72.4    50   52.7   71.7   9.25  .0743    0.000   204    7    100.0   10 
 5/28/24  1:30p   54.0   54.0   53.8    97   53.2   8.0     S   1.33  12.0   SSE   51.3   54.3   51.6   60.2  30.225  0.00  0.00   534     7.65    659     4.0  0.29   4.8   0.076   0.000   72.4    50   52.7   71.7   9.25  .0743    0.000   203    7    100.0   10 
 5/28/24  1:40p   54.2   54.4   54.0    97   53.4   8.0     S   1.33  12.0     S   51.5   54.5   51.8   62.2  30.223  0.00  0.00   728    10.44    868     4.7  0.34   5.2   0.075   0.000   72.5    50   52.8   71.8   9.25  .0743    0.000   204    7    100.0   10 
 5/28/24  1:50p   54.4   54.6   54.2    97   53.6   9.0     S   1.50  15.0   SSE   51.1   54.7   51.4   61.4  30.224  0.00  0.00   706    10.12    768     5.1  0.36   6.9   0.074   0.000   72.6    50   52.9   71.9   9.25  .0743    0.000   203    7    100.0   10 
 5/28/24  2:00p   54.2   54.5   54.1    96   53.1   8.0     S   1.33  12.0   SSE   51.5   54.4   51.7   59.5  30.228  0.00  0.00   474     6.79    591     3.4  0.24   4.1   0.075   0.000   72.6    50   52.9   71.9   9.25  .0743    0.011   201    7    100.0   10 
 5/28/24  2:10p   54.2   54.2   54.1    97   53.4   8.0     S   1.33  12.0   SSE   51.5   54.5   51.8   58.5  30.230  0.00  0.00   407     5.83    438     2.7  0.19   3.0   0.075   0.000   72.6    50   52.9   71.9   9.25  .0743    0.000   202    7    100.0   10 
 5/28/24  2:20p   54.3   54.4   54.2    96   53.2   9.0     S   1.50  13.0     S   51.0   54.5   51.2   57.0  30.230  0.00  0.00   365     5.23    422     2.5  0.18   2.8   0.074   0.000   72.7    50   53.0   72.1   9.25  .0743    0.000   205    7    100.0   10 
 5/28/24  2:30p   54.4   54.5   54.3    97   53.6   7.0     S   1.17  11.0   SSE   52.5   54.7   52.8   58.8  30.232  0.00  0.00   352     5.05    367     2.4  0.17   2.5   0.074   0.000   72.6    50   52.9   71.9   9.25  .0743    0.000   203    7    100.0   10 
 5/28/24  2:40p   54.3   54.4   54.2    97   53.5   7.0     S   1.17   9.0   SSE   52.4   54.6   52.7   56.9  30.232  0.00  0.00   260     3.73    302     1.8  0.13   2.1   0.074   0.000   72.6    50   52.9   71.9   9.25  .0743    0.000   203    7    100.0   10 
 5/28/24  2:50p   54.4   54.5   54.2    97   53.6   7.0     S   1.17  11.0   SSE   52.5   54.7   52.8   57.5  30.233  0.00  0.00   281     4.03    318     1.9  0.14   2.2   0.074   0.000   72.7    51   53.5   72.2   9.40  .0743    0.000   204    7    100.0   10 
 5/28/24  3:00p   54.3   54.6   54.3    97   53.5   6.0     S   1.00   9.0   SSW   52.8   54.6   53.1   58.1  30.233  0.00  0.00   289     4.14    334     2.0  0.14   2.3   0.074   0.000   72.7    51   53.5   72.2   9.40  .0743    0.006   204    7    100.0   10 
 5/28/24  3:10p   54.2   54.4   54.2    97   53.4   6.0     S   1.00   9.0     S   52.6   54.5   52.9   56.0  30.237  0.00  0.00   201     2.88    225     1.4  0.10   1.6   0.075   0.000   72.7    51   53.5   72.2   9.40  .0743    0.000   202    7    100.0   10 
 5/28/24  3:20p   53.9   54.2   53.9    97   53.1   5.0     S   0.83   8.0   SSE   52.8   54.2   53.1   55.2  30.236  0.00  0.00   162     2.32    174     1.1  0.08   1.2   0.077   0.000   72.7    51   53.5   72.2   9.40  .0743    0.000   203    7    100.0   10 
 5/28/24  3:30p   54.1   54.1   53.8    97   53.3   6.0     S   1.00  10.0   SSE   52.5   54.4   52.8   56.7  30.237  0.00  0.00   234     3.35    255     1.6  0.11   1.7   0.076   0.000   72.7    51   53.5   72.2   9.40  .0743    0.000   201    7    100.0   10 
 5/28/24  3:40p   53.9   54.2   53.9    97   53.1   4.0     S   0.67   7.0   SSW   53.4   54.2   53.7   57.2  30.239  0.00  0.00   214     3.07    279     1.4  0.10   1.8   0.077   0.000   72.8    51   53.6   72.3   9.39  .0743    0.000   204    7    100.0   10 
 5/28/24  3:50p   54.1   54.1   53.9    97   53.3   3.0   SSW   0.50   6.0   SSE   54.1   54.4   54.4   58.1  30.237  0.00  0.00   217     3.11    230     1.3  0.09   1.4   0.076   0.000   72.8    51   53.6   72.3   9.39  .0743    0.000   202    7    100.0   10 
 5/28/24  4:00p   54.2   54.2   54.1    97   53.4   2.0   SSW   0.33   4.0   SSE   54.2   54.5   54.5   56.1  30.236  0.00  0.00   132     1.89    183     0.8  0.06   1.1   0.075   0.000   72.8    51   53.6   72.3   9.39  .0743    0.004   202    7    100.0   10 
 5/28/24  4:10p   54.3   54.3   54.1    97   53.5   4.0   SSW   0.67   9.0    SW   53.8   54.6   54.1   58.9  30.236  0.00  0.00   258     3.70    306     1.5  0.11   1.7   0.074   0.000   72.9    51   53.7   72.5   9.39  .0743    0.000   203    7    100.0   10 
 5/28/24  4:20p   55.1   55.1   54.3    97   54.3   4.0    SW   0.67   6.0    SW   54.7   55.4   55.0   62.1  30.236  0.00  0.00   355     5.09    446     2.4  0.17   3.7   0.069   0.000   73.0    51   53.8   72.6   9.39  .0742    0.000   201    7    100.0   10 
 5/28/24  4:30p   54.7   55.1   54.7    97   53.9   3.0    SW   0.50   5.0   SSE   54.7   55.0   55.0   63.4  30.236  0.00  0.00   414     5.93    489     2.4  0.17   2.7   0.072   0.000   73.1    51   53.9   72.7   9.39  .0742    0.000   203    7    100.0   10 
 5/28/24  4:40p   54.6   54.8   54.6    97   53.8   4.0   SSW   0.67   7.0     S   54.2   54.9   54.5   61.7  30.234  0.00  0.00   346     4.96    371     2.0  0.14   2.1   0.072   0.000   73.2    51   54.0   72.8   9.39  .0742    0.000   202    7    100.0   10 
 5/28/24  4:50p   54.7   54.8   54.6    97   53.9   6.0     S   1.00   9.0   SSE   53.2   55.0   53.5   63.4  30.234  0.00  0.00   486     6.97    636     2.2  0.16   2.9   0.072   0.000   73.2    51   54.0   72.8   9.39  .0742    0.000   205    7    100.0   10 
 5/28/24  5:00p   54.5   54.7   54.5    97   53.7   6.0     S   1.00   8.0     S   53.0   54.8   53.3   57.5  30.238  0.00  0.00   210     3.01    318     1.2  0.09   1.7   0.073   0.000   73.3    51   54.1   73.0   9.38  .0742    0.007   203    7    100.0   10 
 5/28/24  5:10p   54.4   54.5   54.3    97   53.6   5.0     S   0.83   8.0   SSE   53.4   54.7   53.7   56.0  30.241  0.00  0.00   136     1.95    153     0.7  0.05   0.8   0.074   0.000   73.3    50   53.5   72.9   9.25  .0742    0.000   203    7    100.0   10 
 5/28/24  5:20p   54.0   54.4   54.0    97   53.2   7.0   SSW   1.17  12.0     S   52.0   54.3   52.3   54.6  30.244  0.00  0.00   132     1.89    169     0.6  0.04   0.8   0.076   0.000   73.2    51   54.0   72.8   9.39  .0742    0.000   203    7    100.0   10 
 5/28/24  5:30p   53.5   54.0   53.5    97   52.7   5.0     S   0.83   9.0   SSE   52.3   53.8   52.6   57.2  30.245  0.00  0.00   205     2.94    244     0.9  0.06   1.0   0.080   0.000   73.2    51   54.0   72.8   9.39  .0742    0.000   204    7    100.0   10 
 5/28/24  5:40p   53.7   53.7   53.5    97   52.9   4.0     S   0.67   6.0   SSE   53.1   54.0   53.4   59.3  30.244  0.00  0.00   243     3.48    301     1.0  0.07   1.2   0.078   0.000   73.2    51   54.0   72.8   9.39  .0742    0.000   199    7    100.0   10 
 5/28/24  5:50p   53.8   53.8   53.6    98   53.2   4.0     S   0.67   8.0   ESE   53.3   54.1   53.6   57.8  30.243  0.00  0.00   179     2.57    211     0.7  0.05   0.8   0.078   0.000   73.2    51   54.0   72.8   9.39  .0742    0.000   202    7    100.0   10 
 5/28/24  6:00p   54.0   54.1   53.8    97   53.2   3.0     S   0.50   5.0     S   54.0   54.3   54.3   55.9  30.241  0.00  0.00    96     1.38    146     0.1  0.01   0.6   0.076   0.000   73.2    51   54.0   72.8   9.39  .0742    0.003   202    7    100.0   10 
 5/28/24  6:10p   53.6   54.0   53.6    97   52.8   4.0     S   0.67   7.0   SSE   53.0   53.9   53.3   54.5  30.238  0.00  0.00    82     1.18     98     0.0  0.00   0.0   0.079   0.000   73.2    51   54.0   72.8   9.39  .0742    0.000   203    7    100.0   10 
 5/28/24  6:20p   53.8   53.8   53.6    98   53.2   3.0     S   0.50   6.0   SSE   53.8   54.1   54.1   55.7  30.241  0.00  0.00    89     1.28    105     0.0  0.00   0.0   0.078   0.000   73.2    51   54.0   72.8   9.39  .0742    0.000   200    7    100.0   10 
 5/28/24  6:30p   53.8   53.8   53.6    98   53.2   4.0     S   0.67   6.0   SSE   53.3   54.1   53.6   55.4  30.244  0.00  0.00    92     1.32     97     0.0  0.00   0.0   0.078   0.000   73.2    51   54.0   72.8   9.39  .0742    0.000   204    7    100.0   10 
Email: AdamSPAM@StormwatchersRetreat.com (To send me email remove the word 'SPAM' from my email address.)